Valley International Airport
KHRL : rendu visible

Aérodrome :











RETROUVEZ-NOUS SUR...

 
LOGIN :

S'inscrire | Disclaimer

   EN    FR    IT 

 









Légende :    VFR   VFR Marginal   IFR   IFR Intensif   IFR Très Intensif
Visi : 
Plafond : 
>= 8 km
>= 3000ft
5 à 8 km
1000 à 3000 ft
1500m à 5 km
500 à 1000 ft
800 à 1500m
200 à 500 ft
< 800m
< 200 ft
Symboles :   Orages  Brouillard  Fortes neiges  Fortes précipitations  Vent > 20 kt






- Altitude de l'aérodrome : 36 ft
- Code IATA : HRL


KHRL - Valley International

DERNIER METAR :
  • 290915Z AUTO 02008KT 10SM OVC009 21/21 A2993 RMK AO2 T02110206 $

METARs EXPIRÉS :
  • 290852Z AUTO 03009KT 10SM OVC010 21/21 A2993 RMK AO2 CIG 005V010 SLP134 60002 T02110206 58003 $
  • 290850Z AUTO 03009KT 10SM OVC010 21/21 A2993 RMK AO2 CIG 004V010 $
  • 290752Z AUTO 03008KT 6SM BR BKN006 OVC011 22/22 A2994 RMK AO2 RAE12B23E47 SLP139 P0002 T02220217 $
  • 290712Z AUTO 05007KT 5SM BR OVC004 22/22 A2994 RMK AO2 RAE12 P0001 T02170217 $
  • 290652Z AUTO 04006KT 5SM -RA BR OVC006 22/21 A2994 RMK AO2 RAB49 CIG 003V008 SLP137 P0000 T02170211 $

TAF KHRL
Valide du 29 à 06h jusqu'au 30 à 06h UTC


290521Z 2906/3006 03010KT P6SM VCSH OVC008
FM291500 06012KT P6SM BKN020
FM300100 09005KT P6SM BKN020



MET'MAP, la Météo Aéronautique d'un coup d'oeil ! - Copyright ORBIFLY Décembre 2007 - Disclaimer

ORBIFLY MET'MAP TEAM :

Programmation & Développement : Alexandra Zaïnal
Sur une idée originale de : Baudouin d'Aumeries
Assistance à la programmation : Marc-Olivier Méhu
Soutien technique & logistique : Manuel Goepfert

Contact : metmap@orbifly.com




SOURCES & CREDITS :

   NOAA       Earth
Advisory